Latest Weather Observations for Ocean Reef

IDW60801

Issued at 6:23 pm WST Monday 20 May 2019 (issued every 10 minutes, with the page automatically refreshed every 10 minutes)

About weather observations | Map of weather stations | Latest weather observations for WA | Other Formats
Station Details ID: 009214 Name: OCEAN REEF Lat: -31.76 Lon: 115.73 Height: 10.0 m
Data from the previous 72 hours. | See also: Recent months at Ocean Reef
Date/Time
WST
Temp
°C
App
Temp
°C
Dew
Point
°C
Rel
Hum
%
Delta-T
°C
Wind Press
QNH
hPa
Press
MSL
hPa
Rain since
9am
mm
Dir  Spd
km/h
Gust
km/h
Spd
kts
Gust
kts
20/06:00pm - - - - - SW 22 26 12 14 - - -
20/05:30pm - - - - - SW 20 28 11 15 - - -
20/05:00pm - - - - - SW 22 28 12 15 - - -
20/04:30pm - - - - - SW 22 30 12 16 - - -
20/04:00pm - - - - - WSW 33 41 18 22 - - -
20/03:30pm - - - - - SW 24 30 13 16 - - -
20/03:00pm - - - - - WSW 24 30 13 16 - - -
20/02:30pm - - - - - WSW 24 30 13 16 - - -
20/02:00pm - - - - - WSW 24 32 13 17 - - -
20/01:30pm - - - - - WSW 22 28 12 15 - - -
20/01:00pm - - - - - WSW 22 28 12 15 - - -
20/12:30pm - - - - - W 26 30 14 16 - - -
20/12:00pm - - - - - WSW 24 28 13 15 - - -
20/11:30am - - - - - WSW 28 32 15 17 - - -
20/11:00am - - - - - WSW 26 32 14 17 - - -
20/10:30am - - - - - WSW 20 26 11 14 - - -
20/10:00am - - - - - WSW 24 30 13 16 - - -
20/09:30am - - - - - WSW 24 30 13 16 - - -
20/09:00am - - - - - SW 24 30 13 16 - - -
20/08:30am - - - - - WSW 28 33 15 18 - - -
20/08:00am - - - - - WSW 26 32 14 17 - - -
20/07:30am - - - - - WSW 28 35 15 19 - - -
20/07:00am - - - - - WSW 24 35 13 19 - - -
20/06:30am - - - - - SW 20 28 11 15 - - -
20/06:00am - - - - - SW 20 28 11 15 - - -
20/05:30am - - - - - SW 33 41 18 22 - - -
20/05:00am - - - - - WSW 26 41 14 22 - - -
20/04:30am - - - - - NW 26 35 14 19 - - -
20/04:00am - - - - - NNE 24 32 13 17 - - -
20/03:30am - - - - - N 17 22 9 12 - - -
20/03:00am - - - - - NNE 19 26 10 14 - - -
20/02:30am - - - - - N 17 20 9 11 - - -
20/02:00am - - - - - N 19 28 10 15 - - -
20/01:30am - - - - - NNE 20 28 11 15 - - -
20/01:00am - - - - - NNE 20 26 11 14 - - -
20/12:30am - - - - - NNE 19 24 10 13 - - -
20/12:00am - - - - - NNE 20 28 11 15 - - -
 
Date/Time
WST
Temp
°C
App
Temp
°C
Dew
Point
°C
Rel
Hum
%
Delta-T
°C
Wind Press
QNH
hPa
Press
MSL
hPa
Rain since
9am
mm
Dir  Spd
km/h
Gust
km/h
Spd
kts
Gust
kts
19/11:30pm - - - - - NNE 20 26 11 14 - - -
19/11:00pm - - - - - NNE 19 28 10 15 - - -
19/10:30pm - - - - - NNE 17 24 9 13 - - -
19/10:00pm - - - - - NNE 19 26 10 14 - - -
19/09:30pm - - - - - NNE 17 20 9 11 - - -
19/09:00pm - - - - - NNE 15 19 8 10 - - -
19/08:30pm - - - - - N 13 15 7 8 - - -
19/08:00pm - - - - - NNE 11 13 6 7 - - -
19/07:30pm - - - - - N 11 13 6 7 - - -
19/07:00pm - - - - - WNW 9 11 5 6 - - -
19/06:30pm - - - - - W 13 17 7 9 - - -
19/06:00pm - - - - - CALM 0 0 0 0 - - -
19/05:30pm - - - - - W 7 9 4 5 - - -
19/05:00pm - - - - - CALM 0 0 0 0 - - -
19/04:30pm - - - - - W 2 6 1 3 - - -
19/04:00pm - - - - - CALM 0 0 0 0 - - -
19/03:30pm - - - - - W 9 11 5 6 - - -
19/03:00pm - - - - - W 15 17 8 9 - - -
19/02:30pm - - - - - W 9 13 5 7 - - -
19/02:00pm - - - - - N 15 20 8 11 - - -
19/01:30pm - - - - - NNW 13 24 7 13 - - -
19/01:00pm - - - - - N 13 20 7 11 - - -
19/12:30pm - - - - - N 13 20 7 11 - - -
19/12:00pm - - - - - NNE 17 24 9 13 - - -
19/11:30am - - - - - NNE 17 24 9 13 - - -
19/11:00am - - - - - NNE 22 30 12 16 - - -
19/10:30am - - - - - NNE 24 37 13 20 - - -
19/10:00am - - - - - NE 24 33 13 18 - - -
19/09:30am - - - - - NE 28 37 15 20 - - -
19/09:00am - - - - - NE 20 28 11 15 - - -
19/08:30am - - - - - NE 20 28 11 15 - - -
19/08:00am - - - - - NE 20 28 11 15 - - -
19/07:30am - - - - - NE 19 24 10 13 - - -
19/07:00am - - - - - NE 22 30 12 16 - - -
19/06:30am - - - - - ENE 24 30 13 16 - - -
19/06:00am - - - - - ENE 24 28 13 15 - - -
19/05:30am - - - - - ENE 24 28 13 15 - - -
19/05:00am - - - - - ENE 22 28 12 15 - - -
19/04:30am - - - - - ENE 20 26 11 14 - - -
19/04:00am - - - - - ENE 20 24 11 13 - - -
19/03:30am - - - - - ENE 22 26 12 14 - - -
19/03:00am - - - - - ENE 20 26 11 14 - - -
19/02:30am - - - - - NE 20 26 11 14 - - -
19/02:00am - - - - - ENE 19 26 10 14 - - -
19/01:30am - - - - - ENE 20 26 11 14 - - -
19/01:00am - - - - - ENE 17 19 9 10 - - -
19/12:30am - - - - - ENE 17 19 9 10 - - -
19/12:00am - - - - - ENE 15 17 8 9 - - -
 
Date/Time
WST
Temp
°C
App
Temp
°C
Dew
Point
°C
Rel
Hum
%
Delta-T
°C
Wind Press
QNH
hPa
Press
MSL
hPa
Rain since
9am
mm
Dir  Spd
km/h
Gust
km/h
Spd
kts
Gust
kts
18/11:30pm - - - - - ENE 15 17 8 9 - - -
18/11:00pm - - - - - ENE 15 15 8 8 - - -
18/10:30pm - - - - - E 15 19 8 10 - - -
18/10:00pm - - - - - E 15 19 8 10 - - -
18/09:30pm - - - - - E 15 17 8 9 - - -
18/09:00pm - - - - - ESE 15 17 8 9 - - -
18/08:30pm - - - - - SE 15 17 8 9 - - -
18/08:00pm - - - - - SE 13 15 7 8 - - -
18/07:30pm - - - - - ESE 13 15 7 8 - - -
18/07:00pm - - - - - SE 13 15 7 8 - - -
18/06:30pm - - - - - SSE 13 15 7 8 - - -
18/06:00pm - - - - - SSE 13 17 7 9 - - -
18/05:30pm - - - - - S 15 19 8 10 - - -
18/05:00pm - - - - - SW 13 15 7 8 - - -
18/04:30pm - - - - - SSW 13 15 7 8 - - -
18/04:00pm - - - - - SW 13 17 7 9 - - -
18/03:30pm - - - - - SW 13 17 7 9 - - -
18/03:00pm - - - - - SW 13 15 7 8 - - -
18/02:30pm - - - - - WSW 15 19 8 10 - - -
18/02:00pm - - - - - SW 15 19 8 10 - - -
18/01:30pm - - - - - SW 15 17 8 9 - - -
18/01:00pm - - - - - SW 15 19 8 10 - - -
18/12:30pm - - - - - SW 13 15 7 8 - - -
18/12:00pm - - - - - SSW 9 11 5 6 - - -
18/11:30am - - - - - SW 9 11 5 6 - - -
18/11:00am - - - - - ENE 7 11 4 6 - - -
18/10:30am - - - - - NE 11 15 6 8 - - -
18/10:00am - - - - - ENE 13 17 7 9 - - -
18/09:30am - - - - - ENE 13 17 7 9 - - -
18/09:00am - - - - - ENE 15 19 8 10 - - -
18/08:30am - - - - - ENE 9 11 5 6 - - -
18/08:00am - - - - - CALM 0 0 0 0 - - -
18/07:30am - - - - - SE 2 9 1 5 - - -
18/07:00am - - - - - ENE 7 9 4 5 - - -
18/06:30am - - - - - E 9 13 5 7 - - -
18/06:00am - - - - - NE 7 9 4 5 - - -
18/05:30am - - - - - E 9 9 5 5 - - -
18/05:00am - - - - - ESE 6 9 3 5 - - -
18/04:30am - - - - - SE 7 11 4 6 - - -
18/04:00am - - - - - ENE 17 20 9 11 - - -
18/03:30am - - - - - ENE 15 17 8 9 - - -
18/03:00am - - - - - ENE 15 17 8 9 - - -
18/02:30am - - - - - ENE 15 19 8 10 - - -
18/02:00am - - - - - ENE 15 19 8 10 - - -
18/01:30am - - - - - E 15 17 8 9 - - -
18/01:00am - - - - - E 15 17 8 9 - - -
18/12:30am - - - - - E 15 17 8 9 - - -
18/12:00am - - - - - E 15 17 8 9 - - -
 
Date/Time
WST
Temp
°C
App
Temp
°C
Dew
Point
°C
Rel
Hum
%
Delta-T
°C
Wind Press
QNH
hPa
Press
MSL
hPa
Rain since
9am
mm
Dir  Spd
km/h
Gust
km/h
Spd
kts
Gust
kts
17/11:30pm - - - - - E 15 17 8 9 - - -
17/11:00pm - - - - - E 15 17 8 9 - - -
17/10:30pm - - - - - E 15 17 8 9 - - -
17/10:00pm - - - - - E 13 15 7 8 - - -
17/09:30pm - - - - - E 13 13 7 7 - - -
17/09:00pm - - - - - E 11 13 6 7 - - -
17/08:30pm - - - - - ESE 13 15 7 8 - - -
17/08:00pm - - - - - ESE 11 13 6 7 - - -
17/07:30pm - - - - - SE 11 13 6 7 - - -
17/07:00pm - - - - - SE 11 15 6 8 - - -
17/06:30pm - - - - - SE 13 17 7 9 - - -

Other formats

Comma delimited format used in spreadsheet applications
http://www.bom.gov.au/fwo/IDW60801/IDW60801.94607.axf

JavaScript Object Notation format (JSON) in row-major order
http://www.bom.gov.au/fwo/IDW60801/IDW60801.94607.json

Data quality

Most of these data are generated automatically and are frequently updated. Quality checks on data are not normally performed. It is possible for incorrect values to appear. Refer to information at About Latest Weather Observations and please check the disclaimer before using these data.